Time;durP1;ratioP1;P1;durP2;ratioP2;P2;SDS_P1;SDS_P2;PMS_P1;PMS_P2;Temp;Humidity;BMP_temperature;BMP_pressure;BME280_temperature;BME280_humidity;BME280_pressure;Samples;Min_cycle;Max_cycle;Signal;HPM_P1;HPM_P2
2022/06/03 00:07:39;;;;;;;1.13;0.40;;;13.60;99.90;;;;;;20634133;28;20425;-41
2022/06/03 00:17:54;;;;;;;1.27;0.45;;;13.50;99.90;;;;;;20627786;28;20219;-41
2022/06/03 00:28:20;;;;;;;0.80;0.30;;;13.40;99.90;;;;;;20624581;28;20081;-41
2022/06/03 00:38:28;;;;;;;2.00;0.50;;;13.20;99.90;;;;;;20635726;28;20038;-41
2022/06/03 00:48:58;;;;;;;1.50;0.57;;;13.10;99.90;;;;;;20690824;28;20049;-41
2022/06/03 00:59:14;;;;;;;0.55;0.30;;;13.00;99.90;;;;;;20634355;28;20064;-41
2022/06/03 01:09:29;;;;;;;4.00;0.28;;;12.90;99.90;;;;;;20611123;28;20046;-41
2022/06/03 01:19:47;;;;;;;0.63;0.40;;;12.80;99.90;;;;;;20613790;28;20402;-41
2022/06/03 01:30:33;;;;;;;0.60;0.40;;;12.70;99.90;;;;;;20635311;28;20042;-41
2022/06/03 01:41:09;;;;;;;1.10;0.60;;;12.70;99.90;;;;;;20575083;28;20485;-41
2022/06/03 01:51:47;;;;;;;1.55;0.45;;;12.60;99.90;;;;;;20704731;28;21973;-41
2022/06/03 02:02:07;;;;;;;;;;;12.60;99.90;;;;;;20721303;28;20060;-41
2022/06/03 02:12:27;;;;;;;1.65;0.40;;;12.50;99.90;;;;;;20705430;28;19929;-41
2022/06/03 02:22:52;;;;;;;0.70;0.40;;;12.50;99.90;;;;;;20696305;28;20880;-41
2022/06/03 02:33:30;;;;;;;1.65;0.88;;;12.50;99.90;;;;;;20701532;28;20045;-41
2022/06/03 02:43:48;;;;;;;2.63;0.50;;;12.40;99.90;;;;;;20694834;28;20073;-41
2022/06/03 02:53:51;;;;;;;1.63;0.60;;;12.40;99.90;;;;;;20699700;28;20303;-41
2022/06/03 03:04:11;;;;;;;2.10;0.60;;;12.40;99.90;;;;;;20705023;28;20088;-41
2022/06/03 03:14:29;;;;;;;2.03;0.65;;;12.40;99.90;;;;;;20688362;28;20618;-41
2022/06/03 03:24:48;;;;;;;1.80;0.70;;;12.40;99.90;;;;;;20703004;28;20497;-41
2022/06/03 03:34:54;;;;;;;1.02;0.65;;;12.30;99.90;;;;;;20701706;28;20045;-41
2022/06/03 03:44:57;;;;;;;1.05;0.60;;;12.20;99.90;;;;;;20699050;28;20632;-41
2022/06/03 03:55:20;;;;;;;2.58;0.90;;;12.20;99.90;;;;;;20697300;28;20065;-41
2022/06/03 04:05:56;;;;;;;1.17;0.43;;;12.20;99.90;;;;;;20707215;28;20520;-41
2022/06/03 04:16:31;;;;;;;0.63;0.30;;;12.20;99.90;;;;;;20688632;28;20710;-41
2022/06/03 04:26:41;;;;;;;1.10;0.70;;;12.20;99.90;;;;;;20687826;28;21240;-41
2022/06/03 04:37:24;;;;;;;1.30;0.60;;;12.20;99.90;;;;;;20685430;28;20133;-41
2022/06/03 04:47:46;;;;;;;1.00;0.43;;;12.20;99.90;;;;;;20559904;28;20053;-41
2022/06/03 04:58:22;;;;;;;2.42;0.80;;;12.10;99.90;;;;;;20690593;28;20358;-41
2022/06/03 05:08:29;;;;;;;1.48;0.70;;;12.10;99.90;;;;;;20697980;28;20675;-41
2022/06/03 05:19:02;;;;;;;3.42;0.82;;;12.50;99.90;;;;;;20617781;28;21345;-41
2022/06/03 05:29:24;;;;;;;1.30;0.57;;;12.90;99.90;;;;;;20612252;28;20332;-41
2022/06/03 05:39:46;;;;;;;1.48;0.60;;;13.40;99.90;;;;;;20630150;28;21566;-41
2022/06/03 05:50:12;;;;;;;2.03;1.00;;;13.80;99.90;;;;;;20618974;28;20095;-41
2022/06/03 06:00:55;;;;;;;1.40;0.60;;;14.10;99.90;;;;;;20637047;28;20400;-41
2022/06/03 06:11:15;;;;;;;1.13;0.57;;;14.50;99.90;;;;;;20608004;28;20932;-41
2022/06/03 06:21:28;;;;;;;2.28;0.98;;;14.90;99.90;;;;;;20618525;28;21389;-41
2022/06/03 06:32:06;;;;;;;1.48;0.80;;;15.10;99.90;;;;;;20723710;28;20472;-41
2022/06/03 06:42:26;;;;;;;2.40;0.90;;;15.30;99.90;;;;;;20747043;28;21375;-41
2022/06/03 06:52:51;;;;;;;2.40;1.13;;;15.60;99.90;;;;;;20659162;28;21582;-41
2022/06/03 07:03:14;;;;;;;1.88;1.17;;;15.90;99.90;;;;;;20667321;28;21327;-41
2022/06/03 07:13:40;;;;;;;1.88;1.08;;;16.20;99.90;;;;;;20667773;28;21583;-41
2022/06/03 07:23:47;;;;;;;6.53;1.00;;;16.50;99.90;;;;;;20673724;28;20040;-41
2022/06/03 07:34:13;;;;;;;2.13;1.00;;;16.60;99.90;;;;;;20708336;28;20566;-41
2022/06/03 07:44:55;;;;;;;2.15;0.60;;;16.80;99.90;;;;;;20713506;28;20606;-41
2022/06/03 07:54:57;;;;;;;3.08;1.08;;;17.00;99.90;;;;;;20706948;28;21558;-41
2022/06/03 08:05:12;;;;;;;2.47;0.90;;;17.00;99.90;;;;;;20712111;28;20029;-41
2022/06/03 08:15:22;;;;;;;1.98;0.95;;;17.30;99.90;;;;;;20669896;28;21399;-41
2022/06/03 08:25:30;;;;;;;1.05;0.50;;;17.50;99.90;;;;;;20723130;28;20034;-41
2022/06/03 08:35:38;;;;;;;3.33;0.70;;;17.80;99.90;;;;;;20683750;28;21556;-41
2022/06/03 08:45:53;;;;;;;7.85;0.90;;;18.10;99.90;;;;;;20646969;28;20038;-41
2022/06/03 08:56:08;;;;;;;1.67;0.98;;;18.40;99.90;;;;;;20653042;28;20058;-41
2022/06/03 09:06:36;;;;;;;1.83;1.05;;;18.70;99.90;;;;;;20654219;28;20041;-41
2022/06/03 09:16:40;;;;;;;1.87;0.83;;;19.20;99.90;;;;;;20651725;28;20493;-41
2022/06/03 09:26:46;;;;;;;2.08;0.65;;;19.60;99.90;;;;;;20687972;28;20045;-41
2022/06/03 09:36:48;;;;;;;1.42;0.50;;;19.90;99.90;;;;;;20682701;28;20033;-41
2022/06/03 09:47:04;;;;;;;1.30;0.50;;;20.20;99.90;;;;;;20703529;28;20537;-41
2022/06/03 09:57:24;;;;;;;1.95;0.63;;;20.40;99.90;;;;;;20700432;28;20068;-41
2022/06/03 10:07:26;;;;;;;0.80;0.35;;;20.70;99.90;;;;;;20726753;28;21257;-41
2022/06/03 10:17:27;;;;;;;1.67;0.70;;;21.00;99.90;;;;;;20722108;28;20060;-41
2022/06/03 10:27:29;;;;;;;2.08;0.38;;;21.30;99.90;;;;;;20723548;28;20146;-41
2022/06/03 10:37:30;;;;;;;12.02;0.50;;;21.50;99.90;;;;;;20743443;28;20529;-41
2022/06/03 10:47:34;;;;;;;1.25;0.52;;;21.80;99.90;;;;;;20718578;28;20038;-41
2022/06/03 11:08:05;;;;;;;0.90;0.50;;;22.10;99.90;;;;;;20708527;28;20058;-41
2022/06/03 11:18:18;;;;;;;1.00;0.45;;;22.30;99.90;;;;;;20676267;28;20042;-41
2022/06/03 11:28:20;;;;;;;1.02;0.52;;;22.50;99.90;;;;;;20649155;28;21523;-41
2022/06/03 11:38:40;;;;;;;0.75;0.30;;;22.60;98.90;;;;;;20640624;28;20042;-41
2022/06/03 11:48:43;;;;;;;0.90;0.30;;;22.80;97.90;;;;;;20663312;28;20552;-41
2022/06/03 11:59:19;;;;;;;0.80;0.43;;;23.10;97.00;;;;;;20653236;28;21403;-41
2022/06/03 12:09:45;;;;;;;1.63;0.55;;;23.00;96.80;;;;;;20714527;28;20338;-41
2022/06/03 12:19:52;;;;;;;1.33;0.57;;;23.10;94.70;;;;;;20718865;28;20045;-41
2022/06/03 12:30:12;;;;;;;0.43;0.20;;;23.20;96.80;;;;;;20744880;28;20567;-41
2022/06/03 12:40:25;;;;;;;0.68;0.28;;;23.70;92.60;;;;;;20705964;28;20398;-41
2022/06/03 12:50:28;;;;;;;0.60;0.30;;;24.00;91.80;;;;;;20713992;28;20504;-41
2022/06/03 13:00:34;;;;;;;0.70;0.40;;;23.80;93.60;;;;;;20711069;28;20061;-41
2022/06/03 13:10:55;;;;;;;0.57;0.35;;;23.70;94.00;;;;;;20731990;28;20034;-41
2022/06/03 13:20:57;;;;;;;1.10;0.55;;;23.90;92.80;;;;;;20711641;28;20441;-41
2022/06/03 13:31:13;;;;;;;1.17;0.80;;;23.80;94.90;;;;;;20738300;28;20492;-41
2022/06/03 13:51:50;;;;;;;3.20;0.50;;;23.70;94.20;;;;;;20727939;28;20467;-41
2022/06/03 14:01:53;;;;;;;3.10;0.70;;;24.20;94.20;;;;;;20712709;28;20663;-41
2022/06/03 14:12:07;;;;;;;1.40;1.08;;;24.10;94.10;;;;;;20721717;28;20053;-41
2022/06/03 14:22:14;;;;;;;0.95;0.40;;;24.00;93.50;;;;;;20710138;28;20048;-41
2022/06/03 14:32:22;;;;;;;0.70;0.47;;;24.00;93.10;;;;;;20724108;28;21340;-41
2022/06/03 14:42:29;;;;;;;0.85;0.40;;;23.90;93.30;;;;;;20710960;28;20053;-41
2022/06/03 14:52:38;;;;;;;0.65;0.47;;;23.70;93.20;;;;;;20651818;28;20042;-41
2022/06/03 15:03:02;;;;;;;0.75;0.30;;;23.60;93.40;;;;;;20663065;28;20065;-41
2022/06/03 15:13:03;;;;;;;0.90;0.40;;;23.40;94.10;;;;;;20748413;28;20126;-41
2022/06/03 15:23:06;;;;;;;0.80;0.35;;;23.40;94.30;;;;;;20765477;28;20038;-41
2022/06/03 15:33:16;;;;;;;0.85;0.50;;;23.60;93.30;;;;;;20728254;28;20134;-41
2022/06/03 15:43:25;;;;;;;1.85;0.60;;;23.50;94.00;;;;;;20699716;28;20304;-41
2022/06/03 15:53:29;;;;;;;1.13;0.50;;;23.50;94.70;;;;;;20735949;28;20050;-41
2022/06/03 16:03:36;;;;;;;1.48;0.68;;;23.40;94.70;;;;;;20715100;28;21810;-41
2022/06/03 16:14:33;;;;;;;1.80;1.10;;;23.30;94.80;;;;;;20734961;28;20033;-41
2022/06/03 16:24:40;;;;;;;0.70;0.50;;;23.30;95.10;;;;;;20600317;28;20450;-41
2022/06/03 16:34:41;;;;;;;13.20;1.95;;;23.10;94.40;;;;;;20739011;28;20045;-41
2022/06/03 16:44:57;;;;;;;1.60;0.73;;;23.00;94.40;;;;;;20706043;28;20046;-41
2022/06/03 16:55:03;;;;;;;1.67;0.63;;;22.90;95.70;;;;;;20713278;28;20275;-41
2022/06/03 17:05:04;;;;;;;2.85;0.80;;;22.80;96.00;;;;;;20669414;28;20042;-41
2022/06/03 17:15:07;;;;;;;3.90;2.15;;;22.90;95.10;;;;;;20704795;28;20049;-41
2022/06/03 17:25:20;;;;;;;1.58;0.90;;;22.60;96.20;;;;;;20699244;28;20061;-41
2022/06/03 17:35:26;;;;;;;4.50;1.30;;;22.30;96.40;;;;;;20693638;28;20490;-41
2022/06/03 17:45:39;;;;;;;1.83;0.88;;;22.10;96.30;;;;;;20721010;28;20419;-41
2022/06/03 17:55:58;;;;;;;1.15;0.63;;;21.70;99.70;;;;;;20665793;28;20250;-41
2022/06/03 18:06:18;;;;;;;1.10;0.52;;;21.40;99.90;;;;;;20682467;28;20379;-41
2022/06/03 18:16:40;;;;;;;1.10;0.38;;;21.00;99.90;;;;;;20665363;28;20681;-41
2022/06/03 18:27:00;;;;;;;0.63;0.38;;;20.70;99.90;;;;;;20691267;28;20486;-41
2022/06/03 18:37:39;;;;;;;1.40;0.50;;;20.50;99.90;;;;;;20669407;28;20493;-41
2022/06/03 18:47:45;;;;;;;;;;;20.50;99.90;;;;;;20694519;28;20308;-41
2022/06/03 18:58:06;;;;;;;2.95;0.57;;;20.40;99.90;;;;;;20650976;28;21403;-41
2022/06/03 19:08:25;;;;;;;1.88;0.40;;;20.20;99.90;;;;;;20675057;28;20038;-41
2022/06/03 19:18:53;;;;;;;0.73;0.30;;;20.00;99.90;;;;;;20682209;28;21533;-41
2022/06/03 19:29:06;;;;;;;1.58;0.40;;;19.90;99.90;;;;;;20679567;28;20537;-41
2022/06/03 19:39:37;;;;;;;0.70;0.30;;;19.80;99.90;;;;;;20708730;28;20045;-41
2022/06/03 19:50:00;;;;;;;2.10;0.82;;;19.50;99.90;;;;;;20695440;28;20037;-41
2022/06/03 20:00:22;;;;;;;0.20;0.10;;;19.30;99.90;;;;;;20698952;28;20502;-41
2022/06/03 20:10:52;;;;;;;0.65;0.30;;;19.00;99.90;;;;;;20653754;28;20038;-41
2022/06/03 20:21:12;;;;;;;1.00;0.30;;;18.80;99.90;;;;;;20626550;28;20061;-41
2022/06/03 20:31:22;;;;;;;0.60;0.17;;;18.50;99.90;;;;;;20619700;28;20053;-41
2022/06/03 20:41:45;;;;;;;3.30;0.63;;;18.40;99.90;;;;;;20652195;28;20409;-41
2022/06/03 20:51:55;;;;;;;0.70;0.32;;;18.10;99.90;;;;;;20720735;28;20056;-41
2022/06/03 21:02:16;;;;;;;1.60;0.30;;;17.90;99.90;;;;;;20725288;28;20053;-41
2022/06/03 21:22:40;;;;;;;2.20;1.17;;;17.60;99.90;;;;;;20699376;28;20231;-41
2022/06/03 21:33:00;;;;;;;0.82;0.30;;;17.50;99.90;;;;;;20715268;28;20475;-41
2022/06/03 21:43:13;;;;;;;1.05;0.40;;;17.40;99.90;;;;;;20730745;28;20044;-40
2022/06/03 21:53:32;;;;;;;1.83;0.60;;;17.10;99.90;;;;;;20731013;28;21486;-40
2022/06/03 22:03:34;;;;;;;0.95;0.43;;;16.90;99.90;;;;;;20717564;28;20131;-40
2022/06/03 22:13:36;;;;;;;0.73;0.32;;;16.80;99.90;;;;;;20705727;28;20391;-41
2022/06/03 22:23:38;;;;;;;0.57;0.22;;;16.70;99.90;;;;;;20664709;28;20045;-41
2022/06/03 22:33:49;;;;;;;0.80;0.20;;;16.50;99.90;;;;;;20715606;28;20045;-41
2022/06/03 22:44:00;;;;;;;0.63;0.32;;;16.40;99.90;;;;;;20674969;28;20029;-41
2022/06/03 22:54:02;;;;;;;4.43;0.60;;;16.20;99.90;;;;;;20719120;28;20136;-41
2022/06/03 23:04:04;;;;;;;1.20;0.50;;;16.10;99.90;;;;;;20705252;28;20049;-41
2022/06/03 23:14:05;;;;;;;1.08;0.47;;;16.00;99.90;;;;;;20665656;28;20516;-41
2022/06/03 23:24:06;;;;;;;1.23;0.55;;;15.80;99.90;;;;;;20657633;28;20617;-41
2022/06/03 23:34:08;;;;;;;1.50;0.43;;;15.70;99.90;;;;;;20659247;28;20046;-41
2022/06/03 23:54:30;;;;;;;2.15;0.40;;;15.40;99.90;;;;;;20706739;28;20053;-41
